Time;durP1;ratioP1;P1;durP2;ratioP2;P2;SDS_P1;SDS_P2;PMS_P1;PMS_P2;Temp;Humidity;BMP_temperature;BMP_pressure;BME280_temperature;BME280_humidity;BME280_pressure;Samples;Min_cycle;Max_cycle;Signal;HPM_P1;HPM_P2
2021/09/29 00:02:03;;;;;;;1.90;1.33;;;;;;;10.72;100.00;101092.47;6398481;23;20012;-79
2021/09/29 00:04:33;;;;;;;3.72;1.52;;;;;;;10.75;100.00;101087.13;6398454;23;20088;-80
2021/09/29 00:07:04;;;;;;;3.88;1.70;;;;;;;10.81;100.00;101077.38;6409253;23;20005;-81
2021/09/29 00:09:34;;;;;;;2.75;1.45;;;;;;;10.81;100.00;101077.38;6407947;23;20012;-81
2021/09/29 00:12:05;;;;;;;5.72;1.83;;;;;;;10.70;100.00;101078.56;6395924;23;20001;-80
2021/09/29 00:14:36;;;;;;;2.60;1.67;;;;;;;10.62;100.00;101080.53;6395640;23;20008;-79
2021/09/29 00:17:06;;;;;;;2.22;1.50;;;;;;;10.48;100.00;101073.09;6398961;23;20009;-81
2021/09/29 00:19:36;;;;;;;5.93;1.58;;;;;;;10.42;100.00;101073.25;6399079;23;19997;-81
2021/09/29 00:22:07;;;;;;;4.15;1.45;;;;;;;10.52;100.00;101071.25;6398466;23;20012;-80
2021/09/29 00:24:37;;;;;;;2.67;1.50;;;;;;;10.75;100.00;101061.00;6406379;23;20001;-81
2021/09/29 00:27:07;;;;;;;2.95;1.40;;;;;;;10.70;100.00;101052.44;6411221;23;20001;-80
2021/09/29 00:29:40;;;;;;;2.28;1.38;;;;;;;10.59;100.00;101054.47;6410963;23;20009;-80
2021/09/29 00:32:10;;;;;;;1.90;1.20;;;;;;;10.55;100.00;101052.88;6410794;23;20089;-81
2021/09/29 00:34:41;;;;;;;2.53;1.30;;;;;;;10.67;100.00;101047.31;6399622;23;20001;-80
2021/09/29 00:37:11;;;;;;;2.38;1.40;;;;;;;10.71;100.00;101043.69;6399584;23;20008;-81
2021/09/29 00:39:42;;;;;;;4.75;1.67;;;;;;;10.68;100.00;101035.94;6399169;23;20001;-81
2021/09/29 00:42:13;;;;;;;1.73;1.48;;;;;;;10.73;100.00;101041.88;6411906;23;20001;-80
2021/09/29 00:44:43;;;;;;;2.00;1.30;;;;;;;10.76;100.00;101045.28;6399324;23;20004;-81
2021/09/29 00:47:14;;;;;;;4.10;1.70;;;;;;;10.78;100.00;101042.59;6411911;23;20009;-80
2021/09/29 00:49:44;;;;;;;2.65;1.52;;;;;;;10.84;100.00;101039.84;6399162;23;20005;-81
2021/09/29 00:52:14;;;;;;;2.53;1.50;;;;;;;10.91;100.00;101037.00;6400514;23;19997;-80
2021/09/29 00:54:45;;;;;;;2.92;1.38;;;;;;;11.07;100.00;101036.47;6399346;23;20007;-81
2021/09/29 00:57:15;;;;;;;3.15;1.20;;;;;;;11.13;100.00;101028.44;6399549;23;20005;-80
2021/09/29 00:59:45;;;;;;;2.47;1.35;;;;;;;11.00;100.00;101030.63;6397679;23;20533;-80
2021/09/29 01:02:17;;;;;;;2.75;1.60;;;;;;;11.02;100.00;101030.53;6396903;23;20033;-81
2021/09/29 01:04:48;;;;;;;4.68;1.60;;;;;;;10.95;100.00;101024.66;6408381;23;20005;-81
2021/09/29 01:07:24;;;;;;;2.15;1.50;;;;;;;10.92;100.00;101017.78;6408036;23;20005;-80
2021/09/29 01:10:24;;;;;;;3.40;1.52;;;;;;;10.97;100.00;101020.25;6406781;23;20196;-80
2021/09/29 01:13:31;;;;;;;4.25;1.50;;;;;;;10.91;100.00;101012.59;6393677;23;20009;-81
2021/09/29 01:16:05;;;;;;;2.70;1.50;;;;;;;10.93;100.00;101018.63;6398163;23;20001;-80
2021/09/29 01:18:42;;;;;;;5.07;1.90;;;;;;;10.82;100.00;101010.25;6397709;23;20007;-80
2021/09/29 01:21:16;;;;;;;2.70;1.80;;;;;;;10.85;100.00;101005.78;6399229;23;20577;-83
2021/09/29 01:23:57;;;;;;;5.93;1.65;;;;;;;10.84;100.00;101003.22;6398735;23;20350;-82
2021/09/29 01:26:34;;;;;;;4.95;1.73;;;;;;;10.94;100.00;100999.41;6399057;23;20055;-81
2021/09/29 01:29:07;;;;;;;3.53;1.80;;;;;;;11.00;100.00;101000.09;6398414;23;20393;-81
2021/09/29 01:31:39;;;;;;;2.95;1.60;;;;;;;10.86;100.00;101002.25;6411928;23;20005;-80
2021/09/29 01:34:10;;;;;;;4.80;1.95;;;;;;;10.79;100.00;100999.88;6403713;23;20068;-80
2021/09/29 01:36:43;;;;;;;3.00;1.77;;;;;;;10.70;100.00;100995.75;6399024;23;20012;-80
2021/09/29 01:39:16;;;;;;;2.65;1.63;;;;;;;10.82;100.00;101000.66;6409799;23;20053;-81
2021/09/29 01:41:46;;;;;;;2.42;1.58;;;;;;;10.76;100.00;100994.75;6398486;23;20395;-80
2021/09/29 01:44:17;;;;;;;4.65;1.90;;;;;;;10.63;100.00;100994.25;6410956;23;20009;-81
2021/09/29 01:46:47;;;;;;;3.67;1.80;;;;;;;10.48;100.00;100988.63;6399715;23;20005;-80
2021/09/29 01:49:30;;;;;;;4.30;1.70;;;;;;;10.61;100.00;100989.94;6401514;23;20001;-81
2021/09/29 01:52:04;;;;;;;5.15;1.98;;;;;;;10.57;100.00;100988.34;6402817;23;20005;-80
2021/09/29 01:54:41;;;;;;;3.60;1.70;;;;;;;10.63;100.00;100982.91;6401725;23;20426;-81
2021/09/29 01:57:12;;;;;;;4.60;2.17;;;;;;;10.65;100.00;100986.38;6400548;23;20039;-81
2021/09/29 01:59:44;;;;;;;3.80;2.13;;;;;;;10.72;100.00;100987.88;6400145;23;20318;-80
2021/09/29 02:02:14;;;;;;;4.80;2.22;;;;;;;10.80;100.00;100986.75;6400132;23;20032;-81
2021/09/29 02:04:47;;;;;;;5.40;2.60;;;;;;;10.75;100.00;100970.38;6400450;23;20001;-79
2021/09/29 02:07:17;;;;;;;3.97;2.10;;;;;;;10.86;100.00;100980.50;6401543;23;20064;-80
2021/09/29 02:09:48;;;;;;;6.72;2.35;;;;;;;10.79;100.00;100969.38;6399880;23;20425;-80
2021/09/29 02:12:18;;;;;;;5.18;2.45;;;;;;;10.80;100.00;100971.06;6400377;23;20274;-80
2021/09/29 02:14:48;;;;;;;4.30;2.30;;;;;;;10.89;100.00;100970.78;6399541;23;20020;-80
2021/09/29 02:17:18;;;;;;;3.47;2.42;;;;;;;11.02;100.00;100971.28;6401388;23;20005;-81
2021/09/29 02:19:49;;;;;;;3.40;2.20;;;;;;;10.88;100.00;100961.22;6414036;23;20099;-81
2021/09/29 02:22:19;;;;;;;3.90;2.00;;;;;;;10.88;100.00;100958.63;6414454;23;20005;-80
2021/09/29 02:24:49;;;;;;;3.78;2.28;;;;;;;11.02;100.00;100961.66;6401831;23;20001;-81
2021/09/29 02:27:20;;;;;;;4.97;2.10;;;;;;;11.03;100.00;100960.75;6403341;23;20008;-81
2021/09/29 02:29:50;;;;;;;2.85;2.10;;;;;;;11.19;100.00;100954.13;6414559;23;20035;-81
2021/09/29 02:32:20;;;;;;;4.72;2.30;;;;;;;11.03;100.00;100955.53;6402042;23;20007;-81
2021/09/29 02:34:51;;;;;;;4.78;2.60;;;;;;;10.96;100.00;100947.91;6403175;23;20004;-81
2021/09/29 02:37:21;;;;;;;5.38;2.80;;;;;;;10.85;100.00;100947.41;6402672;23;20039;-80
2021/09/29 02:39:52;;;;;;;4.03;2.63;;;;;;;10.85;100.00;100939.56;6402081;23;20000;-80
2021/09/29 02:42:22;;;;;;;5.78;2.80;;;;;;;10.77;100.00;100939.81;6401679;23;20015;-80
2021/09/29 02:44:52;;;;;;;3.80;2.10;;;;;;;10.67;100.00;100933.13;6400299;23;20024;-80
2021/09/29 02:47:23;;;;;;;4.85;2.20;;;;;;;10.66;100.00;100930.59;6401603;23;20042;-80
2021/09/29 02:49:53;;;;;;;4.25;2.25;;;;;;;10.56;100.00;100922.16;6412688;23;20181;-81
2021/09/29 02:52:24;;;;;;;5.95;2.05;;;;;;;10.61;100.00;100927.22;6400697;23;20001;-80
2021/09/29 02:54:54;;;;;;;3.03;1.95;;;;;;;10.80;100.00;100918.78;6399769;23;20008;-80
2021/09/29 02:57:25;;;;;;;4.93;2.00;;;;;;;10.89;100.00;100917.66;6401937;23;20112;-80
2021/09/29 02:59:55;;;;;;;4.15;2.50;;;;;;;10.93;100.00;100920.13;6401759;23;19997;-80
2021/09/29 03:02:25;;;;;;;3.03;1.90;;;;;;;11.00;100.00;100919.00;6402036;23;20016;-80
2021/09/29 03:04:55;;;;;;;5.03;2.38;;;;;;;10.95;100.00;100914.81;6414515;23;20001;-80
2021/09/29 03:07:26;;;;;;;5.03;2.30;;;;;;;10.96;100.00;100906.94;6413908;23;20009;-81
2021/09/29 03:09:56;;;;;;;4.45;2.50;;;;;;;11.08;100.00;100899.56;6401210;23;20016;-81
2021/09/29 03:12:26;;;;;;;4.82;2.40;;;;;;;11.06;100.00;100905.72;6401603;23;20012;-79
2021/09/29 03:14:57;;;;;;;4.10;2.28;;;;;;;11.06;100.00;100900.50;6402173;23;20091;-79
2021/09/29 03:17:27;;;;;;;4.95;2.22;;;;;;;11.00;100.00;100905.09;6398788;23;19997;-81
2021/09/29 03:19:58;;;;;;;4.50;2.53;;;;;;;10.92;100.00;100894.88;6414265;23;20001;-81
2021/09/29 03:22:30;;;;;;;6.53;2.80;;;;;;;10.82;100.00;100895.22;6402191;23;20061;-80
2021/09/29 03:25:01;;;;;;;5.88;2.50;;;;;;;10.76;100.00;100900.63;6401194;23;20025;-81
2021/09/29 03:27:32;;;;;;;4.32;2.30;;;;;;;10.66;100.00;100899.22;6401588;23;20000;-80
2021/09/29 03:30:03;;;;;;;5.60;2.10;;;;;;;10.55;100.00;100894.28;6400477;23;20026;-80
2021/09/29 03:32:33;;;;;;;3.35;2.05;;;;;;;10.67;100.00;100893.09;6401175;23;20004;-80
2021/09/29 03:35:04;;;;;;;6.28;2.42;;;;;;;10.70;100.00;100885.97;6399460;23;20001;-79
2021/09/29 03:37:34;;;;;;;4.70;2.75;;;;;;;10.68;100.00;100897.41;6399364;23;20036;-81
2021/09/29 03:40:05;;;;;;;3.58;2.20;;;;;;;10.72;100.00;100897.25;6399367;23;20001;-81
2021/09/29 03:42:36;;;;;;;8.05;2.60;;;;;;;10.68;100.00;100886.94;6399749;23;20024;-81
2021/09/29 03:45:08;;;;;;;4.57;2.80;;;;;;;10.66;100.00;100888.75;6399976;23;20004;-81
2021/09/29 03:47:43;;;;;;;3.63;2.58;;;;;;;10.70;100.00;100885.97;6400872;23;20329;-81
2021/09/29 03:50:14;;;;;;;5.18;3.00;;;;;;;10.65;100.00;100890.50;6399307;23;20337;-80
2021/09/29 03:52:44;;;;;;;3.67;2.70;;;;;;;10.72;100.00;100889.41;6399375;23;20005;-80
2021/09/29 03:55:15;;;;;;;5.38;2.85;;;;;;;10.83;100.00;100889.09;6399830;23;20005;-81
2021/09/29 03:57:45;;;;;;;5.25;3.10;;;;;;;10.82;100.00;100884.75;6411160;23;20023;-80
2021/09/29 04:00:16;;;;;;;5.53;3.75;;;;;;;10.86;100.00;100886.38;6397994;23;20005;-81
2021/09/29 04:02:47;;;;;;;9.65;3.47;;;;;;;10.76;100.00;100874.47;6409959;23;20008;-80
2021/09/29 04:05:17;;;;;;;6.32;3.90;;;;;;;10.93;100.00;100877.41;6397440;23;20036;-81
2021/09/29 04:07:47;;;;;;;6.30;3.78;;;;;;;10.84;100.00;100869.88;6398290;23;20468;-81
2021/09/29 04:10:17;;;;;;;8.27;3.97;;;;;;;10.77;100.00;100869.22;6396479;23;20076;-81
2021/09/29 04:12:49;;;;;;;5.50;4.00;;;;;;;10.79;100.00;100863.91;6396712;23;20008;-80
2021/09/29 04:15:19;;;;;;;7.35;4.05;;;;;;;10.69;100.00;100860.75;6396357;23;20009;-81
2021/09/29 04:17:50;;;;;;;5.93;4.18;;;;;;;10.76;100.00;100862.28;6395471;23;20005;-80
2021/09/29 04:20:20;;;;;;;5.80;3.97;;;;;;;10.79;100.00;100858.69;6409404;23;19997;-80
2021/09/29 04:22:51;;;;;;;6.68;4.50;;;;;;;10.74;100.00;100852.75;6398038;23;20002;-80
2021/09/29 04:25:21;;;;;;;4.85;3.72;;;;;;;10.73;100.00;100848.44;6398706;23;20005;-81
2021/09/29 04:27:52;;;;;;;6.30;4.60;;;;;;;10.75;100.00;100857.09;6411215;23;20012;-81
2021/09/29 04:30:22;;;;;;;5.60;4.30;;;;;;;10.82;100.00;100850.78;6399729;23;20461;-81
2021/09/29 04:32:54;;;;;;;7.80;4.40;;;;;;;10.84;100.00;100860.25;6397624;23;20004;-81
2021/09/29 04:35:25;;;;;;;5.72;4.43;;;;;;;10.74;100.00;100851.03;6398056;23;20088;-81
2021/09/29 04:37:55;;;;;;;9.15;4.65;;;;;;;10.66;100.00;100853.00;6398591;23;20008;-80
2021/09/29 04:40:25;;;;;;;6.22;4.15;;;;;;;10.79;100.00;100853.47;6399030;23;20019;-80
2021/09/29 04:42:56;;;;;;;6.28;4.28;;;;;;;10.68;100.00;100855.59;6397872;23;20005;-80
2021/09/29 04:45:26;;;;;;;6.15;4.22;;;;;;;10.67;100.00;100854.72;6409903;23;20008;-80
2021/09/29 04:47:56;;;;;;;6.28;4.20;;;;;;;10.69;100.00;100844.22;6408797;23;20063;-80
2021/09/29 04:50:27;;;;;;;6.47;4.68;;;;;;;10.82;100.00;100848.16;6407284;23;19997;-81
2021/09/29 04:52:57;;;;;;;8.68;4.78;;;;;;;10.77;100.00;100847.44;6409886;23;20438;-81
2021/09/29 04:55:30;;;;;;;6.53;4.93;;;;;;;10.70;100.00;100844.16;6400444;23;20027;-80
2021/09/29 04:58:04;;;;;;;9.63;4.88;;;;;;;10.59;100.00;100840.16;6409121;23;20004;-81
2021/09/29 05:00:34;;;;;;;5.97;4.65;;;;;;;10.50;100.00;100858.78;6396344;23;19997;-81
2021/09/29 05:03:06;;;;;;;7.15;5.00;;;;;;;10.48;100.00;100852.75;6395705;23;20024;-80
2021/09/29 05:05:37;;;;;;;10.40;5.63;;;;;;;10.47;100.00;100856.22;6396403;23;20009;-81
2021/09/29 05:08:17;;;;;;;9.80;5.18;;;;;;;10.48;100.00;100852.75;6408208;23;20068;-80
2021/09/29 05:10:59;;;;;;;11.23;5.75;;;;;;;10.57;100.00;100847.22;6395508;23;20339;-80
2021/09/29 05:13:31;;;;;;;6.68;5.00;;;;;;;10.66;100.00;100852.16;6394170;23;19997;-80
2021/09/29 05:16:03;;;;;;;5.68;4.32;;;;;;;10.56;100.00;100854.22;6405498;23;20001;-80
2021/09/29 05:18:33;;;;;;;8.70;5.25;;;;;;;10.54;100.00;100850.75;6404298;23;20071;-80
2021/09/29 05:21:03;;;;;;;7.90;5.13;;;;;;;10.59;100.00;100850.63;6391753;23;20004;-81
2021/09/29 05:23:34;;;;;;;8.20;5.18;;;;;;;10.65;100.00;100847.84;6406114;23;20005;-81
2021/09/29 05:26:04;;;;;;;6.28;4.38;;;;;;;10.76;100.00;100853.56;6396379;23;20004;-79
2021/09/29 05:28:37;;;;;;;6.95;3.92;;;;;;;10.78;100.00;100852.63;6396231;23;20080;-80
2021/09/29 05:31:07;;;;;;;6.35;3.20;;;;;;;10.96;100.00;100853.78;6396384;23;19997;-81
2021/09/29 05:33:37;;;;;;;5.68;3.42;;;;;;;10.86;100.00;100849.78;6407816;23;20059;-80
2021/09/29 05:36:08;;;;;;;6.07;3.60;;;;;;;10.92;100.00;100839.97;6397052;23;20001;-81
2021/09/29 05:38:38;;;;;;;5.28;3.67;;;;;;;11.09;100.00;100835.88;6392962;23;20512;-81
2021/09/29 05:41:08;;;;;;;5.93;3.65;;;;;;;10.89;100.00;100840.03;6410181;23;20402;-82
2021/09/29 05:43:39;;;;;;;8.07;4.28;;;;;;;10.91;100.00;100835.66;6397243;23;20001;-81
2021/09/29 05:46:09;;;;;;;8.50;4.63;;;;;;;11.02;100.00;100828.28;6396636;23;20080;-81
2021/09/29 05:48:39;;;;;;;12.43;6.47;;;;;;;11.04;100.00;100826.47;6395662;23;20003;-80
2021/09/29 05:51:10;;;;;;;10.10;5.50;;;;;;;11.05;100.00;100831.66;6395999;23;20016;-81
2021/09/29 05:53:40;;;;;;;8.65;5.28;;;;;;;11.11;100.00;100828.81;6396049;23;20007;-81
2021/09/29 05:56:11;;;;;;;10.45;6.43;;;;;;;11.11;100.00;100835.84;6407101;23;20003;-81
2021/09/29 05:58:41;;;;;;;9.25;7.20;;;;;;;11.17;100.00;100831.25;6394792;23;20063;-81
2021/09/29 06:01:11;;;;;;;7.88;5.90;;;;;;;11.14;100.00;100815.63;6408151;23;20011;-80
2021/09/29 06:03:42;;;;;;;11.48;6.15;;;;;;;11.29;100.00;100816.91;6395820;23;20425;-81
2021/09/29 06:06:12;;;;;;;14.80;7.72;;;;;;;11.32;100.00;100809.81;6409762;23;20001;-80
2021/09/29 06:08:42;;;;;;;11.38;7.85;;;;;;;11.50;100.00;100808.28;6396084;23;20001;-80
2021/09/29 06:11:12;;;;;;;7.30;5.53;;;;;;;11.57;100.00;100802.81;6409202;23;20328;-80
2021/09/29 06:13:43;;;;;;;9.63;6.35;;;;;;;11.60;100.00;100813.16;6396028;23;20093;-80
2021/09/29 06:16:14;;;;;;;10.73;7.38;;;;;;;11.68;100.00;100812.91;6393288;23;20020;-81
2021/09/29 06:18:49;;;;;;;11.77;7.53;;;;;;;11.64;100.00;100792.97;6393755;23;20005;-80
2021/09/29 06:21:20;;;;;;;10.02;7.28;;;;;;;11.79;100.00;100795.03;6393338;23;20009;-82
2021/09/29 06:23:51;;;;;;;11.98;8.95;;;;;;;11.54;100.00;100796.78;6407593;23;20005;-80
2021/09/29 06:26:21;;;;;;;14.57;9.02;;;;;;;11.69;100.00;100784.06;6408951;23;20004;-81
2021/09/29 06:28:51;;;;;;;11.25;8.50;;;;;;;11.74;100.00;100784.72;6407835;23;20001;-81
2021/09/29 06:31:21;;;;;;;13.30;9.57;;;;;;;11.90;100.00;100771.91;6394449;23;20012;-80
2021/09/29 06:33:52;;;;;;;13.27;9.25;;;;;;;11.96;100.00;100772.53;6395869;23;20027;-80
2021/09/29 06:36:23;;;;;;;15.65;9.40;;;;;;;12.15;100.00;100777.94;6409814;23;20004;-81
2021/09/29 06:38:53;;;;;;;13.40;9.35;;;;;;;12.16;100.00;100779.63;6395990;23;20001;-81
2021/09/29 06:41:24;;;;;;;15.70;10.70;;;;;;;12.13;100.00;100777.97;6397445;23;20425;-81
2021/09/29 06:43:54;;;;;;;14.07;11.18;;;;;;;12.21;100.00;100772.44;6393204;23;20021;-81
2021/09/29 06:46:24;;;;;;;14.52;10.93;;;;;;;12.18;100.00;100778.69;6394353;23;20012;-81
2021/09/29 06:48:55;;;;;;;16.48;10.77;;;;;;;12.22;100.00;100777.63;6401037;23;20536;-81
2021/09/29 06:51:25;;;;;;;14.95;10.95;;;;;;;12.22;100.00;100777.63;6394371;23;20020;-80
2021/09/29 06:53:55;;;;;;;13.68;10.07;;;;;;;12.32;100.00;100776.34;6393616;23;20009;-80
2021/09/29 06:56:26;;;;;;;15.85;10.77;;;;;;;12.45;100.00;100774.13;6393861;23;20005;-80
2021/09/29 06:58:57;;;;;;;12.75;10.07;;;;;;;12.43;100.00;100765.47;6406583;23;20009;-81
2021/09/29 07:01:27;;;;;;;14.20;10.23;;;;;;;12.41;100.00;100776.00;6407657;23;20004;-81
2021/09/29 07:03:57;;;;;;;14.50;10.55;;;;;;;12.56;100.00;100775.38;6395507;23;20009;-81
2021/09/29 07:06:29;;;;;;;12.93;10.20;;;;;;;12.62;100.00;100766.41;6395024;23;20009;-80
2021/09/29 07:08:59;;;;;;;16.63;10.75;;;;;;;12.50;100.00;100775.59;6406706;23;20588;-81
2021/09/29 07:11:29;;;;;;;17.15;12.30;;;;;;;12.59;100.00;100780.50;6393588;23;20009;-81
2021/09/29 07:14:02;;;;;;;16.75;11.88;;;;;;;12.64;100.00;100757.56;6393941;23;20676;-81
2021/09/29 07:16:32;;;;;;;19.20;12.25;;;;;;;12.62;100.00;100753.31;6393476;23;20581;-81
2021/09/29 07:19:03;;;;;;;20.38;13.57;;;;;;;12.65;100.00;100758.44;6394235;23;20005;-80
2021/09/29 07:21:33;;;;;;;20.17;14.45;;;;;;;12.65;100.00;100761.03;6394585;23;20004;-81
2021/09/29 07:24:04;;;;;;;21.40;14.75;;;;;;;12.81;100.00;100760.34;6393537;23;20095;-80
2021/09/29 07:26:35;;;;;;;20.58;14.20;;;;;;;12.79;100.00;100764.78;6393279;23;20012;-81
2021/09/29 07:29:06;;;;;;;17.85;13.63;;;;;;;12.73;100.00;100759.81;6393258;23;20009;-81
2021/09/29 07:31:38;;;;;;;21.75;15.02;;;;;;;12.64;100.00;100760.19;6405085;23;20008;-80
2021/09/29 07:34:08;;;;;;;21.27;15.90;;;;;;;12.57;100.00;100757.88;6404199;23;20005;-80
2021/09/29 07:36:38;;;;;;;22.90;15.40;;;;;;;12.65;100.00;100761.88;6404120;23;20663;-81
2021/09/29 07:39:09;;;;;;;22.45;15.02;;;;;;;12.64;100.00;100757.56;6403225;23;20019;-81
2021/09/29 07:41:39;;;;;;;21.50;15.27;;;;;;;12.64;100.00;100756.72;6393040;23;20008;-81
2021/09/29 07:44:11;;;;;;;22.52;14.93;;;;;;;12.61;100.00;100747.19;6393324;23;20001;-81
2021/09/29 07:46:42;;;;;;;20.05;14.10;;;;;;;12.66;100.00;100747.03;6392741;23;20183;-80
2021/09/29 07:49:13;;;;;;;22.15;15.30;;;;;;;12.55;100.00;100746.59;6392930;23;20000;-80
2021/09/29 07:51:43;;;;;;;21.00;15.07;;;;;;;12.62;100.00;100748.91;6392957;23;20610;-80
2021/09/29 07:54:13;;;;;;;19.45;14.43;;;;;;;12.63;100.00;100745.38;6407156;23;20021;-80
2021/09/29 07:56:44;;;;;;;20.73;14.75;;;;;;;12.74;100.00;100732.66;6393106;23;20004;-80
2021/09/29 07:59:14;;;;;;;23.05;15.00;;;;;;;12.68;100.00;100732.06;6392885;23;20060;-80
2021/09/29 08:01:44;;;;;;;19.50;14.05;;;;;;;12.85;100.00;100729.59;6404943;23;20605;-80
2021/09/29 08:04:18;;;;;;;22.83;14.88;;;;;;;13.02;100.00;100728.84;6393719;23;20004;-81
2021/09/29 08:06:49;;;;;;;21.60;14.82;;;;;;;13.06;100.00;100719.06;6406992;23;20009;-81
2021/09/29 08:09:20;;;;;;;25.15;16.15;;;;;;;13.24;100.00;100715.66;6394096;23;20001;-81
2021/09/29 08:11:50;;;;;;;24.45;15.55;;;;;;;13.42;100.00;100712.19;6393797;23;20005;-81
2021/09/29 08:14:21;;;;;;;22.63;16.08;;;;;;;13.68;100.00;100711.84;6394111;23;20032;-81
2021/09/29 08:16:52;;;;;;;21.30;14.45;;;;;;;14.11;100.00;100711.56;6395084;23;20087;-81
2021/09/29 08:19:22;;;;;;;20.27;14.32;;;;;;;14.46;100.00;100706.31;6394134;23;20036;-81
2021/09/29 08:21:53;;;;;;;17.67;12.52;;;;;;;15.14;100.00;100701.06;6394497;23;20088;-81
2021/09/29 08:24:34;;;;;;;19.65;12.95;;;;;;;15.11;100.00;100715.25;6394862;23;20005;-80
2021/09/29 08:32:34;;;;;;;17.35;11.77;;;;;;;15.33;100.00;100692.16;6404639;23;20024;-81
2021/09/29 08:37:40;;;;;;;16.95;12.05;;;;;;;15.41;100.00;100699.66;6402834;23;20013;-80
2021/09/29 08:40:24;;;;;;;17.80;11.82;;;;;;;15.57;100.00;100700.53;6392660;23;20067;-81
2021/09/29 08:43:07;;;;;;;16.92;12.00;;;;;;;15.61;100.00;100702.91;6394009;23;20027;-81
2021/09/29 08:46:02;;;;;;;15.48;11.38;;;;;;;15.39;100.00;100702.34;6393664;23;20008;-81
2021/09/29 09:16:36;;;;;;;16.63;9.95;;;;;;;17.15;100.00;100690.44;6407079;23;20039;-81
2021/09/29 09:19:09;;;;;;;18.00;10.15;;;;;;;17.30;99.92;100689.50;6394842;23;20009;-80
2021/09/29 09:21:58;;;;;;;12.27;8.60;;;;;;;17.22;99.67;100689.09;6394431;23;20001;-81
2021/09/29 09:24:31;;;;;;;12.35;9.00;;;;;;;17.13;100.00;100679.13;6406575;23;20416;-81
2021/09/29 09:27:05;;;;;;;13.98;9.10;;;;;;;17.06;100.00;100676.00;6407346;23;19997;-81
2021/09/29 09:29:47;;;;;;;14.05;9.13;;;;;;;17.23;100.00;100672.31;6394937;23;20012;-81
2021/09/29 09:32:22;;;;;;;12.25;8.80;;;;;;;17.16;100.00;100673.63;6404696;23;20027;-81
2021/09/29 09:35:01;;;;;;;11.10;8.48;;;;;;;17.27;99.72;100669.41;6393471;23;20005;-81
2021/09/29 09:37:31;;;;;;;12.18;8.65;;;;;;;17.29;98.71;100662.22;6405013;23;20001;-80
2021/09/29 09:40:16;;;;;;;11.07;7.70;;;;;;;17.08;100.00;100663.53;6393775;23;20009;-80
2021/09/29 09:42:50;;;;;;;12.70;8.48;;;;;;;16.63;100.00;100657.53;6391101;23;20005;-81
2021/09/29 09:45:46;;;;;;;13.32;9.13;;;;;;;16.61;100.00;100664.69;6407815;23;20417;-81
2021/09/29 09:48:26;;;;;;;13.20;8.60;;;;;;;16.64;100.00;100661.00;6396375;23;20020;-81
2021/09/29 09:51:02;;;;;;;14.43;8.57;;;;;;;16.42;100.00;100658.75;6396090;23;20021;-81
2021/09/29 09:53:34;;;;;;;11.75;7.60;;;;;;;16.30;100.00;100646.25;6396693;23;20013;-81
2021/09/29 09:56:16;;;;;;;10.95;7.53;;;;;;;16.38;100.00;100659.88;6395595;23;20009;-80
2021/09/29 09:58:48;;;;;;;12.55;8.20;;;;;;;16.21;100.00;100662.59;6394782;23;20009;-81
2021/09/29 10:01:21;;;;;;;9.55;7.22;;;;;;;16.23;100.00;100651.97;6395180;23;20706;-80
2021/09/29 10:03:52;;;;;;;10.30;7.03;;;;;;;16.17;100.00;100662.84;6396057;23;20457;-80
2021/09/29 10:06:24;;;;;;;10.95;7.10;;;;;;;16.06;100.00;100663.47;6407910;23;20015;-81
2021/09/29 10:09:01;;;;;;;9.85;6.68;;;;;;;16.21;100.00;100654.69;6397736;23;20001;-79
2021/09/29 10:11:42;;;;;;;9.35;6.53;;;;;;;16.24;100.00;100651.88;6401569;23;20001;-79
2021/09/29 10:23:16;;;;;;;5.50;2.45;;;;;;;16.94;99.38;100639.75;6413274;23;20467;-80
2021/09/29 10:28:42;;;;;;;3.42;2.10;;;;;;;17.18;96.11;100637.41;6413576;23;20353;-80
2021/09/29 10:34:27;;;;;;;3.97;2.05;;;;;;;17.60;94.99;100640.03;6412244;23;20048;-80
2021/09/29 11:03:00;;;;;;;1.60;0.95;;;;;;;18.57;84.78;100616.84;6410092;23;20016;-80
2021/09/29 11:30:48;;;;;;;2.72;0.80;;;;;;;18.80;82.87;100591.34;6410900;23;20009;-80
2021/09/29 11:33:49;;;;;;;1.52;0.65;;;;;;;19.05;82.99;100588.69;6398216;23;20005;-81
2021/09/29 11:36:28;;;;;;;3.13;0.80;;;;;;;18.85;79.08;100588.38;6398498;23;20290;-81
2021/09/29 12:12:35;;;;;;;3.20;0.60;;;;;;;19.15;75.34;100523.50;6411787;23;20284;-80
2021/09/29 12:15:07;;;;;;;2.20;0.80;;;;;;;19.52;74.07;100509.31;6399964;23;20012;-80
2021/09/29 12:17:40;;;;;;;1.88;0.70;;;;;;;19.57;72.84;100503.66;6400301;23;20028;-81
2021/09/29 12:22:54;;;;;;;4.47;0.70;;;;;;;19.03;73.29;100511.13;6412169;23;20013;-80
2021/09/29 12:25:46;;;;;;;1.77;0.70;;;;;;;19.08;75.81;100506.34;6398623;23;20008;-81
2021/09/29 12:36:28;;;;;;;4.60;0.60;;;;;;;18.95;73.87;100502.88;6411144;23;20358;-80
2021/09/29 12:38:59;;;;;;;4.68;0.70;;;;;;;18.92;73.19;100505.75;6398721;23;20005;-81
2021/09/29 12:41:33;;;;;;;3.00;0.80;;;;;;;18.79;73.80;100496.94;6400024;23;20012;-80
2021/09/29 12:44:13;;;;;;;2.00;0.60;;;;;;;18.82;74.88;100499.41;6411437;23;20236;-80
2021/09/29 12:46:48;;;;;;;1.92;0.70;;;;;;;18.70;75.29;100494.09;6400178;23;20012;-80
2021/09/29 12:49:20;;;;;;;3.47;0.57;;;;;;;18.73;76.93;100498.34;6399569;23;20005;-80
2021/09/29 12:52:00;;;;;;;1.05;0.50;;;;;;;18.55;75.52;100497.81;6398771;23;20004;-80
2021/09/29 12:54:31;;;;;;;2.13;0.63;;;;;;;18.52;75.01;100500.69;6399760;23;20005;-80
2021/09/29 12:57:01;;;;;;;2.50;0.70;;;;;;;18.34;74.80;100498.47;6411571;23;20035;-80
2021/09/29 12:59:31;;;;;;;1.77;0.63;;;;;;;18.42;76.45;100490.84;6410843;23;20059;-80
2021/09/29 13:02:02;;;;;;;2.33;0.77;;;;;;;18.42;78.13;100489.06;6400409;23;20100;-80
2021/09/29 13:04:32;;;;;;;2.13;0.68;;;;;;;18.78;75.84;100484.66;6411272;23;20079;-81
2021/09/29 13:07:02;;;;;;;3.47;0.75;;;;;;;18.75;75.01;100479.59;6411999;23;20032;-81
2021/09/29 13:09:33;;;;;;;1.75;0.73;;;;;;;18.44;76.81;100488.94;6409253;23;20005;-80
2021/09/29 13:12:03;;;;;;;2.15;0.73;;;;;;;18.45;76.89;100482.69;6395857;23;20005;-80
2021/09/29 13:14:34;;;;;;;1.52;0.63;;;;;;;18.40;77.61;100490.09;6408024;23;20015;-80
2021/09/29 13:17:05;;;;;;;3.80;0.73;;;;;;;18.26;79.83;100487.50;6407955;23;20027;-80
2021/09/29 13:19:51;;;;;;;2.05;0.77;;;;;;;18.39;80.80;100493.69;6396111;23;20252;-81
2021/09/29 13:22:24;;;;;;;;;;;;;;;18.29;79.44;100496.13;6408023;23;20077;-80
2021/09/29 13:38:24;;;;;;;2.70;0.80;;;;;;;18.44;78.56;100483.63;6408398;23;20005;-80
2021/09/29 13:40:54;;;;;;;1.60;0.55;;;;;;;18.53;78.94;100489.13;6395273;23;20318;-80
2021/09/29 13:43:25;;;;;;;1.85;0.70;;;;;;;18.72;77.33;100486.06;6407582;23;20004;-81
2021/09/29 13:45:55;;;;;;;3.15;0.60;;;;;;;18.69;75.68;100475.69;6396648;23;20087;-80
2021/09/29 13:48:25;;;;;;;2.25;0.60;;;;;;;18.82;75.72;100483.53;6396756;23;20143;-80
2021/09/29 13:50:56;;;;;;;2.28;0.70;;;;;;;18.89;76.42;100479.47;6396318;23;20012;-82
2021/09/29 13:53:27;;;;;;;2.80;0.80;;;;;;;18.92;76.38;100481.91;6395769;23;20009;-81
2021/09/29 13:56:02;;;;;;;1.52;0.47;;;;;;;18.85;76.83;100487.75;6411652;23;20004;-81
2021/09/29 14:01:49;;;;;;;1.98;0.60;;;;;;;18.95;76.85;100473.72;6391023;23;20009;-80
2021/09/29 14:29:41;;;;;;;2.10;0.60;;;;;;;18.00;79.60;100497.22;6407495;23;20338;-81
2021/09/29 14:32:18;;;;;;;3.05;0.55;;;;;;;17.72;81.01;100517.66;6407186;23;20079;-80
2021/09/29 14:34:48;;;;;;;1.88;0.60;;;;;;;17.61;81.01;100521.00;6396636;23;20005;-79
2021/09/29 14:37:19;;;;;;;3.88;0.90;;;;;;;17.65;81.48;100524.31;6408955;23;20001;-82
2021/09/29 14:39:49;;;;;;;2.85;0.73;;;;;;;17.36;83.40;100536.75;6396466;23;20097;-80
2021/09/29 14:42:20;;;;;;;2.97;0.90;;;;;;;17.18;87.01;100550.25;6407941;23;20001;-81
2021/09/29 14:44:50;;;;;;;2.30;0.70;;;;;;;16.53;96.46;100569.28;6399820;23;20001;-79
2021/09/29 14:47:20;;;;;;;1.63;0.52;;;;;;;16.16;100.00;100575.00;6410874;23;20001;-79